createdAt,value
2022-12-13T00:01:57.960Z,2.38
2022-12-13T00:04:26.939Z,1.88
2022-12-13T00:06:55.055Z,1.40
2022-12-13T00:09:23.125Z,1.88
2022-12-13T00:11:52.160Z,2.88
2022-12-13T00:14:21.486Z,1.65
2022-12-13T00:16:50.810Z,3.33
2022-12-13T00:19:19.518Z,2.05
2022-12-13T00:21:47.429Z,1.92
2022-12-13T00:24:15.256Z,4.05
2022-12-13T00:26:43.497Z,3.15
2022-12-13T00:29:12.328Z,1.90
2022-12-13T00:34:30.604Z,3.15
2022-12-13T00:36:59.999Z,1.80
2022-12-13T00:39:27.885Z,1.38
2022-12-13T00:41:55.738Z,2.15
2022-12-13T00:44:23.790Z,3.17
2022-12-13T00:46:53.193Z,2.47
2022-12-13T00:49:21.193Z,2.53
2022-12-13T00:51:49.628Z,2.60
2022-12-13T00:54:18.013Z,2.53
2022-12-13T00:56:45.912Z,2.05
2022-12-13T00:59:15.147Z,2.35
2022-12-13T01:01:43.122Z,2.22
2022-12-13T01:04:12.761Z,1.65
2022-12-13T01:06:42.401Z,1.77
2022-12-13T01:09:18.210Z,5.63
2022-12-13T01:11:48.015Z,2.50
2022-12-13T01:14:16.722Z,3.28
2022-12-13T01:16:44.721Z,2.70
2022-12-13T01:19:14.071Z,3.10
2022-12-13T01:21:41.937Z,2.58
2022-12-13T01:24:10.350Z,3.30
2022-12-13T01:26:38.493Z,3.53
2022-12-13T01:29:06.591Z,4.28
2022-12-13T01:31:34.622Z,3.83
2022-12-13T01:34:10.611Z,4.65
2022-12-13T01:36:40.605Z,2.58
2022-12-13T01:39:14.747Z,2.47
2022-12-13T01:41:44.465Z,2.72
2022-12-13T01:44:45.474Z,4.90
2022-12-13T01:47:13.785Z,3.00
2022-12-13T01:49:42.267Z,4.03
2022-12-13T01:52:11.851Z,2.10
2022-12-13T01:54:46.735Z,3.97
2022-12-13T01:57:16.577Z,2.85
2022-12-13T01:59:45.303Z,2.28
2022-12-13T02:02:14.016Z,2.70
2022-12-13T02:04:46.914Z,4.07
2022-12-13T02:09:56.479Z,3.85
2022-12-13T02:13:30.877Z,2.53
2022-12-13T02:16:05.872Z,2.58
2022-12-13T02:18:45.547Z,2.65
2022-12-13T02:21:23.440Z,2.05
2022-12-13T02:24:16.470Z,1.80
2022-12-13T02:26:56.036Z,1.58
2022-12-13T02:29:50.380Z,1.67
2022-12-13T02:32:26.057Z,1.95
2022-12-13T02:34:59.097Z,1.90
2022-12-13T02:37:30.360Z,2.63
2022-12-13T02:40:01.375Z,1.38
2022-12-13T02:42:32.776Z,1.52
2022-12-13T02:45:06.480Z,1.67
2022-12-13T02:47:36.829Z,2.55
2022-12-13T02:50:08.012Z,1.50
2022-12-13T02:52:36.348Z,4.82
2022-12-13T02:55:08.939Z,2.97
2022-12-13T02:57:38.941Z,0.70
2022-12-13T03:00:09.180Z,1.95
2022-12-13T03:02:46.137Z,1.52
2022-12-13T03:05:37.523Z,2.00
2022-12-13T03:08:16.294Z,2.13
2022-12-13T03:10:48.368Z,2.70
2022-12-13T03:13:36.334Z,3.17
2022-12-13T03:16:10.539Z,2.33
2022-12-13T03:18:40.328Z,5.35
2022-12-13T03:21:10.686Z,1.40
2022-12-13T03:23:39.035Z,1.77
2022-12-13T03:26:10.554Z,2.60
2022-12-13T03:28:38.976Z,4.60
2022-12-13T03:31:07.606Z,2.78
2022-12-13T03:33:35.547Z,2.08
2022-12-13T03:36:05.437Z,2.05
2022-12-13T03:38:33.405Z,4.43
2022-12-13T03:41:05.550Z,2.38
2022-12-13T03:43:33.785Z,1.50
2022-12-13T03:46:02.261Z,1.33
2022-12-13T03:48:30.200Z,1.27
2022-12-13T03:50:58.099Z,1.83
2022-12-13T03:53:32.779Z,1.35
2022-12-13T03:56:02.115Z,1.65
2022-12-13T03:58:35.739Z,2.53
2022-12-13T04:01:05.748Z,2.85
2022-12-13T04:03:33.650Z,1.77
2022-12-13T04:06:01.520Z,0.82
2022-12-13T04:08:30.876Z,2.42
2022-12-13T04:10:58.739Z,1.52
2022-12-13T04:13:34.536Z,1.02
2022-12-13T04:16:03.302Z,1.17
2022-12-13T04:18:31.536Z,2.22
2022-12-13T04:20:59.421Z,1.67
2022-12-13T04:23:27.388Z,1.83
2022-12-13T04:25:56.658Z,2.22
2022-12-13T04:28:24.496Z,2.30
2022-12-13T04:30:53.279Z,0.90
2022-12-13T04:33:22.193Z,0.80
2022-12-13T04:35:50.794Z,3.80
2022-12-13T04:38:19.072Z,4.22
2022-12-13T04:40:47.180Z,1.10
2022-12-13T04:43:16.601Z,1.23
2022-12-13T04:45:44.581Z,2.80
2022-12-13T04:48:13.718Z,2.67
2022-12-13T04:51:01.053Z,2.47
2022-12-13T04:53:29.785Z,4.78
2022-12-13T04:55:57.785Z,1.33
2022-12-13T04:58:27.020Z,1.60
2022-12-13T05:00:55.051Z,1.30
2022-12-13T05:03:23.143Z,4.28
2022-12-13T05:05:51.384Z,4.70
2022-12-13T05:08:19.239Z,1.90
2022-12-13T05:10:47.213Z,2.58
2022-12-13T05:13:15.152Z,3.65
2022-12-13T05:15:44.391Z,3.22
2022-12-13T05:18:12.237Z,3.47
2022-12-13T05:20:40.359Z,4.32
2022-12-13T05:23:08.324Z,3.65
2022-12-13T05:25:37.069Z,3.92
2022-12-13T05:28:08.776Z,4.03
2022-12-13T05:30:55.287Z,2.28
2022-12-13T05:33:23.581Z,2.53
2022-12-13T05:35:56.193Z,2.72
2022-12-13T05:38:27.298Z,2.92
2022-12-13T05:40:55.197Z,1.73
2022-12-13T05:43:24.239Z,3.35
2022-12-13T05:46:12.526Z,2.83
2022-12-13T05:48:40.602Z,3.35
2022-12-13T05:51:10.607Z,4.00
2022-12-13T05:53:40.904Z,4.57
2022-12-13T05:56:09.741Z,3.53
2022-12-13T05:58:38.274Z,3.17
2022-12-13T06:01:08.681Z,3.47
2022-12-13T06:03:38.266Z,3.85
2022-12-13T06:06:07.200Z,2.15
2022-12-13T06:08:36.288Z,2.78
2022-12-13T06:11:10.413Z,3.38
2022-12-13T06:13:42.645Z,2.42
2022-12-13T06:16:23.272Z,4.60
2022-12-13T06:19:01.227Z,2.70
2022-12-13T06:21:41.091Z,2.95
2022-12-13T06:24:14.768Z,1.85
2022-12-13T06:26:42.889Z,3.35
2022-12-13T06:29:13.696Z,3.55
2022-12-13T06:32:02.327Z,4.25
2022-12-13T06:34:35.681Z,4.65
2022-12-13T06:37:05.633Z,2.85
2022-12-13T06:39:34.033Z,3.97
2022-12-13T06:42:03.240Z,5.32
2022-12-13T06:44:31.196Z,4.10
2022-12-13T06:47:12.176Z,2.42
2022-12-13T06:49:44.351Z,3.42
2022-12-13T06:52:14.354Z,3.97
2022-12-13T06:54:42.554Z,3.22
2022-12-13T06:57:10.844Z,6.63
2022-12-13T06:59:39.072Z,2.67
2022-12-13T07:02:07.351Z,5.97
2022-12-13T07:04:54.663Z,1.63
2022-12-13T07:07:22.554Z,2.42
2022-12-13T07:09:50.465Z,2.25
2022-12-13T07:12:19.213Z,3.08
2022-12-13T07:14:47.097Z,3.90
2022-12-13T07:17:33.858Z,2.47
2022-12-13T07:20:07.783Z,3.97
2022-12-13T07:22:43.001Z,3.28
2022-12-13T07:25:26.795Z,4.25
2022-12-13T07:28:01.967Z,2.67
2022-12-13T07:30:30.911Z,4.38
2022-12-13T07:32:58.897Z,2.75
2022-12-13T07:35:28.156Z,2.30
2022-12-13T07:37:56.109Z,6.28
2022-12-13T07:40:24.085Z,3.42
2022-12-13T07:42:52.257Z,4.53
2022-12-13T07:45:20.286Z,3.83
2022-12-13T07:47:48.455Z,4.65
2022-12-13T07:50:24.700Z,4.35
2022-12-13T07:52:55.008Z,3.40
2022-12-13T07:55:32.895Z,6.97
2022-12-13T07:58:07.665Z,3.25
2022-12-13T08:00:36.459Z,4.00
2022-12-13T08:03:04.425Z,3.90
2022-12-13T08:05:38.666Z,5.45
2022-12-13T08:08:10.091Z,6.97
2022-12-13T08:10:38.044Z,4.40
2022-12-13T08:13:06.158Z,3.58
2022-12-13T08:15:34.059Z,3.75
2022-12-13T08:18:01.960Z,5.40
2022-12-13T08:20:29.851Z,6.85
2022-12-13T08:23:01.852Z,6.78
2022-12-13T08:25:31.750Z,6.15
2022-12-13T08:28:02.385Z,5.65
2022-12-13T08:30:32.242Z,9.00
2022-12-13T08:33:05.230Z,3.88
2022-12-13T08:35:34.508Z,8.57
2022-12-13T08:38:03.016Z,7.88
2022-12-13T08:40:32.315Z,9.55
2022-12-13T08:43:00.306Z,9.80
2022-12-13T08:45:28.446Z,12.93
2022-12-13T08:47:58.954Z,9.18
2022-12-13T08:50:27.099Z,9.23
2022-12-13T08:52:55.043Z,10.15
2022-12-13T08:55:31.464Z,14.48
2022-12-13T08:58:06.945Z,10.55
2022-12-13T09:00:35.732Z,18.63
2022-12-13T09:03:04.652Z,15.15
2022-12-13T09:05:35.105Z,20.40
2022-12-13T09:08:04.306Z,10.07
2022-12-13T09:10:59.355Z,20.73
2022-12-13T09:13:32.072Z,19.00
2022-12-13T09:16:04.634Z,11.57
2022-12-13T09:18:36.505Z,18.05
2022-12-13T09:21:10.568Z,21.70
2022-12-13T09:23:46.270Z,19.33
2022-12-13T09:26:16.186Z,25.38
2022-12-13T09:28:45.447Z,24.67
2022-12-13T09:31:15.000Z,25.63
2022-12-13T09:33:43.680Z,28.02
2022-12-13T09:36:13.355Z,25.42
2022-12-13T09:38:41.258Z,31.35
2022-12-13T09:41:19.682Z,32.35
2022-12-13T09:43:52.767Z,29.00
2022-12-13T09:49:01.821Z,21.63
2022-12-13T09:51:42.994Z,23.10
2022-12-13T09:54:18.467Z,31.35
2022-12-13T09:56:51.106Z,28.80
2022-12-13T09:59:25.279Z,25.27
2022-12-13T10:01:53.297Z,28.40
2022-12-13T10:04:21.231Z,33.45
2022-12-13T10:06:53.182Z,28.05
2022-12-13T10:09:22.082Z,22.50
2022-12-13T10:11:51.528Z,22.73
2022-12-13T10:14:24.354Z,16.20
2022-12-13T10:16:54.383Z,25.88
2022-12-13T10:19:28.720Z,17.73
2022-12-13T10:22:02.308Z,28.83
2022-12-13T10:24:36.699Z,26.30
2022-12-13T10:27:12.894Z,26.75
2022-12-13T10:30:00.737Z,27.05
2022-12-13T10:32:29.042Z,26.98
2022-12-13T10:34:58.955Z,16.77
2022-12-13T10:37:31.361Z,29.83
2022-12-13T10:39:59.989Z,26.75
2022-12-13T10:42:33.661Z,30.63
2022-12-13T10:45:23.004Z,27.08
2022-12-13T10:47:52.076Z,25.42
2022-12-13T10:50:25.933Z,35.45
2022-12-13T10:52:54.250Z,28.15
2022-12-13T10:55:28.616Z,27.63
2022-12-13T10:57:59.018Z,23.85
2022-12-13T11:00:39.073Z,33.42
2022-12-13T11:03:08.165Z,29.80
2022-12-13T11:05:37.657Z,30.52
2022-12-13T11:08:23.381Z,26.60
2022-12-13T11:10:58.745Z,26.02
2022-12-13T11:13:34.137Z,16.30
2022-12-13T11:16:03.631Z,25.55
2022-12-13T11:18:37.132Z,25.70
2022-12-13T11:21:07.643Z,15.18
2022-12-13T11:23:38.340Z,18.58
2022-12-13T11:26:09.685Z,14.77
2022-12-13T11:28:54.156Z,19.95
2022-12-13T11:31:29.941Z,21.88
2022-12-13T11:34:04.132Z,18.35
2022-12-13T11:36:39.758Z,12.95
2022-12-13T11:39:17.182Z,22.70
2022-12-13T11:41:50.839Z,19.15
2022-12-13T11:44:22.548Z,21.00
2022-12-13T11:46:53.566Z,21.25
2022-12-13T11:49:30.625Z,16.05
2022-12-13T11:52:01.789Z,19.00
2022-12-13T11:54:34.494Z,17.70
2022-12-13T11:57:18.333Z,23.48
2022-12-13T11:59:48.419Z,9.13
2022-12-13T12:02:21.975Z,15.45
2022-12-13T12:04:58.134Z,12.93
2022-12-13T12:07:33.645Z,10.90
2022-12-13T12:10:10.840Z,18.08
2022-12-13T12:12:39.433Z,15.88
2022-12-13T12:15:16.064Z,12.35
2022-12-13T12:17:45.994Z,7.35
2022-12-13T12:20:23.919Z,13.70
2022-12-13T12:22:59.414Z,13.13
2022-12-13T12:25:32.523Z,10.48
2022-12-13T12:28:06.412Z,9.43
2022-12-13T12:30:44.416Z,18.48
2022-12-13T12:33:21.522Z,8.70
2022-12-13T12:35:59.903Z,8.57
2022-12-13T12:38:54.801Z,7.93
2022-12-13T12:41:33.786Z,12.15
2022-12-13T12:44:08.828Z,16.25
2022-12-13T12:47:08.782Z,9.40
2022-12-13T12:50:05.970Z,4.53
2022-12-13T12:52:41.049Z,9.95
2022-12-13T12:55:14.557Z,12.25
2022-12-13T12:57:48.959Z,9.45
2022-12-13T13:00:19.176Z,15.02
2022-12-13T13:02:56.593Z,8.65
2022-12-13T13:05:34.869Z,12.32
2022-12-13T13:10:31.478Z,13.95
2022-12-13T13:13:12.595Z,11.60
2022-12-13T13:15:51.921Z,18.05
2022-12-13T13:18:44.438Z,16.55
2022-12-13T13:21:45.310Z,15.67
2022-12-13T13:24:21.750Z,9.32
2022-12-13T13:26:51.216Z,7.93
2022-12-13T13:29:26.568Z,14.32
2022-12-13T13:32:01.445Z,14.70
2022-12-13T13:34:31.957Z,22.05
2022-12-13T13:37:02.698Z,11.52
2022-12-13T13:39:58.641Z,11.57
2022-12-13T13:42:27.182Z,18.55
2022-12-13T13:45:01.675Z,16.65
2022-12-13T13:47:35.547Z,16.38
2022-12-13T13:50:16.695Z,15.77
2022-12-13T13:52:58.842Z,18.08
2022-12-13T13:55:47.554Z,18.70
2022-12-13T13:58:45.628Z,6.50
2022-12-13T14:01:37.045Z,15.77
2022-12-13T14:04:31.552Z,14.02
2022-12-13T14:07:33.668Z,8.57
2022-12-13T14:10:32.473Z,22.77
2022-12-13T14:13:29.485Z,19.00
2022-12-13T14:16:21.754Z,16.92
2022-12-13T14:19:37.783Z,18.67
2022-12-13T14:22:14.673Z,19.60
2022-12-13T14:24:52.026Z,16.42
2022-12-13T14:27:40.359Z,15.23
2022-12-13T14:30:28.472Z,18.90
2022-12-13T14:32:57.658Z,13.20
2022-12-13T14:35:29.500Z,17.55
2022-12-13T14:37:59.806Z,14.75
2022-12-13T14:40:31.271Z,16.67
2022-12-13T14:43:01.146Z,17.33
2022-12-13T14:45:31.167Z,19.42
2022-12-13T14:48:01.434Z,14.18
2022-12-13T14:50:33.204Z,18.98
2022-12-13T14:53:03.103Z,17.10
2022-12-13T14:55:33.294Z,18.23
2022-12-13T14:58:03.778Z,11.80
2022-12-13T15:00:34.768Z,19.20
2022-12-13T15:03:04.162Z,19.27
2022-12-13T15:05:35.331Z,16.42
2022-12-13T15:08:10.246Z,19.23
2022-12-13T15:10:40.863Z,13.95
2022-12-13T15:13:24.040Z,20.48
2022-12-13T15:15:54.244Z,14.10
2022-12-13T15:18:25.056Z,17.15
2022-12-13T15:20:59.914Z,14.43
2022-12-13T15:23:33.600Z,16.35
2022-12-13T15:26:27.737Z,19.80
2022-12-13T15:29:00.742Z,21.88
2022-12-13T15:31:29.276Z,18.10
2022-12-13T15:34:29.634Z,19.08
2022-12-13T15:36:58.361Z,19.17
2022-12-13T15:39:26.521Z,14.05
2022-12-13T15:41:56.167Z,18.55
2022-12-13T15:44:27.994Z,18.50
2022-12-13T15:47:01.803Z,14.90
2022-12-13T15:49:33.206Z,18.48
2022-12-13T15:52:03.108Z,21.80
2022-12-13T15:54:31.153Z,15.52
2022-12-13T15:57:15.079Z,12.13
2022-12-13T15:59:45.907Z,13.80
2022-12-13T16:02:16.767Z,17.38
2022-12-13T16:04:44.714Z,18.45
2022-12-13T16:07:22.804Z,17.63
2022-12-13T16:09:51.677Z,15.48
2022-12-13T16:12:22.385Z,18.42
2022-12-13T16:14:51.648Z,17.80
2022-12-13T16:17:24.555Z,16.80
2022-12-13T16:19:53.248Z,16.10
2022-12-13T16:22:23.718Z,16.52
2022-12-13T16:24:52.252Z,18.88
2022-12-13T16:27:20.837Z,21.90
2022-12-13T16:29:48.810Z,20.33
2022-12-13T16:32:18.099Z,16.77
2022-12-13T16:34:45.999Z,20.73
2022-12-13T16:37:26.625Z,14.73
2022-12-13T16:39:56.463Z,18.63
2022-12-13T16:42:25.913Z,15.75
2022-12-13T16:45:06.076Z,20.55
2022-12-13T16:47:48.450Z,16.98
2022-12-13T16:50:18.879Z,17.33
2022-12-13T16:52:46.994Z,19.92
2022-12-13T16:55:14.933Z,23.63
2022-12-13T16:57:42.836Z,17.23
2022-12-13T17:00:13.772Z,19.17
2022-12-13T17:02:43.096Z,21.10
2022-12-13T17:05:11.030Z,19.88
2022-12-13T17:07:38.899Z,16.33
2022-12-13T17:10:07.973Z,21.25
2022-12-13T17:12:35.843Z,15.05
2022-12-13T17:15:03.759Z,15.23
2022-12-13T17:17:31.711Z,18.58
2022-12-13T17:20:01.127Z,14.32
2022-12-13T17:22:29.099Z,14.55
2022-12-13T17:24:56.937Z,13.18
2022-12-13T17:27:24.864Z,24.95
2022-12-13T17:29:52.756Z,15.93
2022-12-13T17:32:21.785Z,14.00
2022-12-13T17:34:49.708Z,20.73
2022-12-13T17:37:18.939Z,14.52
2022-12-13T17:39:46.805Z,25.10
2022-12-13T17:42:15.614Z,22.83
2022-12-13T17:44:43.673Z,9.80
2022-12-13T17:47:11.778Z,22.55
2022-12-13T17:49:39.716Z,13.00
2022-12-13T17:52:07.586Z,21.45
2022-12-13T17:54:36.853Z,12.15
2022-12-13T17:57:06.304Z,13.18
2022-12-13T17:59:41.205Z,13.65
2022-12-13T18:02:12.589Z,15.23
2022-12-13T18:04:40.691Z,15.32
2022-12-13T18:07:08.516Z,12.02
2022-12-13T18:09:37.758Z,17.27
2022-12-13T18:12:05.786Z,16.75
2022-12-13T18:14:33.697Z,19.23
2022-12-13T18:17:03.817Z,18.88
2022-12-13T18:19:32.102Z,13.60
2022-12-13T18:22:00.100Z,22.88
2022-12-13T18:24:28.397Z,12.27
2022-12-13T18:26:57.629Z,19.02
2022-12-13T18:29:25.478Z,21.02
2022-12-13T18:31:53.465Z,21.35
2022-12-13T18:34:21.452Z,18.85
2022-12-13T18:36:49.344Z,15.07
2022-12-13T18:39:17.329Z,18.48
2022-12-13T18:41:45.421Z,10.98
2022-12-13T18:44:14.817Z,14.65
2022-12-13T18:46:46.047Z,19.00
2022-12-13T18:49:14.429Z,13.65
2022-12-13T18:51:42.291Z,16.33
2022-12-13T18:54:10.256Z,23.02
2022-12-13T18:56:38.073Z,14.77
2022-12-13T18:59:05.989Z,25.05
2022-12-13T19:01:35.749Z,18.00
2022-12-13T19:04:03.749Z,14.93
2022-12-13T19:06:31.678Z,18.98
2022-12-13T19:08:59.820Z,20.45
2022-12-13T19:11:28.580Z,16.80
2022-12-13T19:13:56.673Z,25.10
2022-12-13T19:16:25.400Z,11.65
2022-12-13T19:18:54.701Z,12.35
2022-12-13T19:21:22.964Z,10.93
2022-12-13T19:23:56.795Z,13.30
2022-12-13T19:26:25.705Z,16.88
2022-12-13T19:28:54.078Z,14.45
2022-12-13T19:31:26.943Z,20.70
2022-12-13T19:34:00.104Z,20.05
2022-12-13T19:36:28.039Z,17.27
2022-12-13T19:38:56.848Z,17.45
2022-12-13T19:41:25.022Z,26.45
2022-12-13T19:43:54.101Z,13.88
2022-12-13T19:46:22.040Z,20.33
2022-12-13T19:48:50.073Z,17.02
2022-12-13T19:51:19.425Z,22.45
2022-12-13T19:53:48.305Z,13.75
2022-12-13T19:56:18.787Z,18.58
2022-12-13T19:58:48.298Z,23.10
2022-12-13T20:01:17.171Z,7.43
2022-12-13T20:03:46.309Z,18.98
2022-12-13T20:06:16.613Z,24.02
2022-12-13T20:08:46.274Z,19.85
2022-12-13T20:11:15.671Z,20.15
2022-12-13T20:13:43.634Z,26.27
2022-12-13T20:16:17.102Z,18.35
2022-12-13T20:18:45.942Z,27.27
2022-12-13T20:21:15.441Z,18.63
2022-12-13T20:23:49.298Z,15.23
2022-12-13T20:26:18.821Z,13.70
2022-12-13T20:28:46.822Z,20.80
2022-12-13T20:31:16.504Z,19.60
2022-12-13T20:33:44.384Z,14.40
2022-12-13T20:36:24.252Z,16.42
2022-12-13T20:38:55.742Z,14.05
2022-12-13T20:41:24.865Z,15.98
2022-12-13T20:43:53.826Z,15.30
2022-12-13T20:46:22.110Z,13.68
2022-12-13T20:48:50.594Z,18.42
2022-12-13T20:51:20.515Z,12.05
2022-12-13T20:53:49.833Z,13.65
2022-12-13T20:56:21.758Z,16.83
2022-12-13T20:58:50.376Z,16.90
2022-12-13T21:01:19.712Z,16.38
2022-12-13T21:03:47.798Z,25.90
2022-12-13T21:06:15.715Z,12.60
2022-12-13T21:08:52.668Z,15.85
2022-12-13T21:11:26.112Z,15.38
2022-12-13T21:13:59.845Z,24.75
2022-12-13T21:16:32.044Z,14.15
2022-12-13T21:19:01.543Z,21.38
2022-12-13T21:21:30.615Z,23.85
2022-12-13T21:23:59.322Z,18.30
2022-12-13T21:26:34.611Z,21.23
2022-12-13T21:29:06.287Z,11.70
2022-12-13T21:31:35.019Z,23.52
2022-12-13T21:34:04.039Z,11.70
2022-12-13T21:36:33.118Z,11.15
2022-12-13T21:39:02.710Z,20.08
2022-12-13T21:41:32.481Z,23.27
2022-12-13T21:44:00.697Z,18.35
2022-12-13T21:46:54.736Z,31.67
2022-12-13T21:49:17.486Z,19.90
2022-12-13T21:51:48.101Z,13.20
2022-12-13T21:54:16.897Z,27.33
2022-12-13T21:57:03.422Z,24.33
2022-12-13T21:59:31.831Z,15.60
2022-12-13T22:02:15.765Z,22.90
2022-12-13T22:04:45.555Z,24.65
2022-12-13T22:07:15.080Z,17.30
2022-12-13T22:09:43.012Z,10.60
2022-12-13T22:12:19.892Z,17.02
2022-12-13T22:14:48.181Z,15.70
2022-12-13T22:17:16.105Z,22.40
2022-12-13T22:19:43.949Z,29.17
2022-12-13T22:22:17.139Z,21.75
2022-12-13T22:24:49.855Z,25.00
2022-12-13T22:27:24.070Z,22.00
2022-12-13T22:29:52.622Z,18.42
2022-12-13T22:32:21.135Z,21.25
2022-12-13T22:34:49.174Z,18.35
2022-12-13T22:37:17.349Z,12.30
2022-12-13T22:39:45.188Z,21.35
2022-12-13T22:42:13.299Z,23.73
2022-12-13T22:44:42.498Z,27.15
2022-12-13T22:47:10.332Z,28.77
2022-12-13T22:49:38.165Z,26.38
2022-12-13T22:52:06.388Z,15.18
2022-12-13T22:54:34.215Z,20.33
2022-12-13T22:57:02.018Z,24.20
2022-12-13T22:59:29.950Z,18.98
2022-12-13T23:02:02.548Z,24.85
2022-12-13T23:04:33.624Z,25.60
2022-12-13T23:07:01.720Z,25.25
2022-12-13T23:09:29.549Z,17.60
2022-12-13T23:12:14.826Z,25.05
2022-12-13T23:14:43.333Z,23.48
2022-12-13T23:17:12.565Z,17.55
2022-12-13T23:19:52.860Z,24.25
2022-12-13T23:22:22.220Z,34.75
2022-12-13T23:24:50.215Z,20.73
2022-12-13T23:27:18.387Z,19.13
2022-12-13T23:29:46.236Z,20.08
2022-12-13T23:32:15.568Z,21.38
2022-12-13T23:34:43.476Z,20.15
2022-12-13T23:37:11.530Z,23.33
2022-12-13T23:39:39.384Z,24.17
2022-12-13T23:42:07.219Z,15.10
2022-12-13T23:44:35.085Z,18.65
2022-12-13T23:47:02.906Z,16.60
2022-12-13T23:49:32.277Z,17.70
2022-12-13T23:52:00.159Z,13.65
2022-12-13T23:54:27.988Z,28.05
2022-12-13T23:56:55.869Z,10.63
2022-12-13T23:59:25.834Z,14.25
